sensor_id;sensor_type;location;lat;lon;timestamp;P1;durP1;ratioP1;P2;durP2;ratioP2
9418;SDS011;4748;50.802;7.132;2022-12-18T00:01:39;2.13;;;1.93;;
9418;SDS011;4748;50.802;7.132;2022-12-18T00:04:05;2.33;;;0.83;;
9418;SDS011;4748;50.802;7.132;2022-12-18T00:06:33;7.40;;;2.47;;
9418;SDS011;4748;50.802;7.132;2022-12-18T00:09:01;0.63;;;0.63;;
9418;SDS011;4748;50.802;7.132;2022-12-18T00:11:29;1.70;;;1.60;;
9418;SDS011;4748;50.802;7.132;2022-12-18T00:13:56;1.97;;;1.67;;
9418;SDS011;4748;50.802;7.132;2022-12-18T00:16:23;3.00;;;1.80;;
9418;SDS011;4748;50.802;7.132;2022-12-18T00:18:50;1.00;;;0.93;;
9418;SDS011;4748;50.802;7.132;2022-12-18T00:21:18;0.93;;;0.83;;
9418;SDS011;4748;50.802;7.132;2022-12-18T00:23:45;1.53;;;0.60;;
9418;SDS011;4748;50.802;7.132;2022-12-18T00:26:16;2.97;;;2.00;;
9418;SDS011;4748;50.802;7.132;2022-12-18T00:28:44;2.77;;;1.33;;
9418;SDS011;4748;50.802;7.132;2022-12-18T00:31:10;8.77;;;1.90;;
9418;SDS011;4748;50.802;7.132;2022-12-18T00:33:38;7.50;;;1.43;;
9418;SDS011;4748;50.802;7.132;2022-12-18T00:36:04;3.40;;;2.00;;
9418;SDS011;4748;50.802;7.132;2022-12-18T00:38:42;1.37;;;0.93;;
9418;SDS011;4748;50.802;7.132;2022-12-18T00:41:07;1.87;;;1.73;;
9418;SDS011;4748;50.802;7.132;2022-12-18T00:43:34;2.97;;;1.60;;
9418;SDS011;4748;50.802;7.132;2022-12-18T00:46:00;8.90;;;1.70;;
9418;SDS011;4748;50.802;7.132;2022-12-18T00:48:28;2.10;;;1.20;;
9418;SDS011;4748;50.802;7.132;2022-12-18T00:50:53;0.93;;;0.93;;
9418;SDS011;4748;50.802;7.132;2022-12-18T00:53:18;3.00;;;1.37;;
9418;SDS011;4748;50.802;7.132;2022-12-18T00:55:44;1.00;;;0.90;;
9418;SDS011;4748;50.802;7.132;2022-12-18T00:58:11;1.07;;;0.97;;
9418;SDS011;4748;50.802;7.132;2022-12-18T01:00:37;0.93;;;0.93;;
9418;SDS011;4748;50.802;7.132;2022-12-18T01:03:03;4.53;;;1.73;;
9418;SDS011;4748;50.802;7.132;2022-12-18T01:05:29;1.63;;;1.53;;
9418;SDS011;4748;50.802;7.132;2022-12-18T01:07:55;3.70;;;0.83;;
9418;SDS011;4748;50.802;7.132;2022-12-18T01:10:20;3.60;;;2.13;;
9418;SDS011;4748;50.802;7.132;2022-12-18T01:12:46;3.20;;;2.10;;
9418;SDS011;4748;50.802;7.132;2022-12-18T01:15:12;0.97;;;0.80;;
9418;SDS011;4748;50.802;7.132;2022-12-18T01:17:38;1.43;;;1.43;;
9418;SDS011;4748;50.802;7.132;2022-12-18T01:20:04;2.07;;;1.97;;
9418;SDS011;4748;50.802;7.132;2022-12-18T01:22:30;11.37;;;2.27;;
9418;SDS011;4748;50.802;7.132;2022-12-18T01:24:58;1.23;;;1.23;;
9418;SDS011;4748;50.802;7.132;2022-12-18T01:27:23;4.53;;;2.17;;
9418;SDS011;4748;50.802;7.132;2022-12-18T01:29:49;1.47;;;1.30;;
9418;SDS011;4748;50.802;7.132;2022-12-18T01:32:14;1.97;;;1.67;;
9418;SDS011;4748;50.802;7.132;2022-12-18T01:34:40;4.37;;;1.30;;
9418;SDS011;4748;50.802;7.132;2022-12-18T01:37:05;1.53;;;1.03;;
9418;SDS011;4748;50.802;7.132;2022-12-18T01:39:30;4.00;;;2.27;;
9418;SDS011;4748;50.802;7.132;2022-12-18T01:41:57;1.23;;;1.17;;
9418;SDS011;4748;50.802;7.132;2022-12-18T01:47:15;2.00;;;1.70;;
9418;SDS011;4748;50.802;7.132;2022-12-18T01:49:45;3.03;;;1.13;;
9418;SDS011;4748;50.802;7.132;2022-12-18T01:52:11;2.10;;;1.77;;
9418;SDS011;4748;50.802;7.132;2022-12-18T01:54:36;1.83;;;1.70;;
9418;SDS011;4748;50.802;7.132;2022-12-18T01:57:02;6.50;;;2.20;;
9418;SDS011;4748;50.802;7.132;2022-12-18T01:59:27;1.50;;;0.60;;
9418;SDS011;4748;50.802;7.132;2022-12-18T02:01:55;2.30;;;1.07;;
9418;SDS011;4748;50.802;7.132;2022-12-18T02:04:25;1.50;;;0.93;;
9418;SDS011;4748;50.802;7.132;2022-12-18T02:09:39;10.00;;;2.30;;
9418;SDS011;4748;50.802;7.132;2022-12-18T02:12:24;2.13;;;1.30;;
9418;SDS011;4748;50.802;7.132;2022-12-18T02:15:17;1.33;;;1.23;;
9418;SDS011;4748;50.802;7.132;2022-12-18T02:18:33;0.33;;;0.30;;
9418;SDS011;4748;50.802;7.132;2022-12-18T02:21:29;4.90;;;2.30;;
9418;SDS011;4748;50.802;7.132;2022-12-18T02:29:07;1.57;;;1.47;;
9418;SDS011;4748;50.802;7.132;2022-12-18T02:31:36;3.57;;;1.43;;
9418;SDS011;4748;50.802;7.132;2022-12-18T02:34:06;3.10;;;1.37;;
9418;SDS011;4748;50.802;7.132;2022-12-18T02:36:34;2.30;;;2.13;;
9418;SDS011;4748;50.802;7.132;2022-12-18T02:39:03;0.83;;;0.83;;
9418;SDS011;4748;50.802;7.132;2022-12-18T02:41:31;2.00;;;1.57;;
9418;SDS011;4748;50.802;7.132;2022-12-18T02:43:59;0.50;;;0.50;;
9418;SDS011;4748;50.802;7.132;2022-12-18T02:46:34;2.87;;;1.83;;
9418;SDS011;4748;50.802;7.132;2022-12-18T02:49:15;2.77;;;1.20;;
9418;SDS011;4748;50.802;7.132;2022-12-18T03:00:06;2.10;;;2.00;;
9418;SDS011;4748;50.802;7.132;2022-12-18T03:05:17;3.80;;;1.33;;
9418;SDS011;4748;50.802;7.132;2022-12-18T03:10:17;3.83;;;1.33;;
9418;SDS011;4748;50.802;7.132;2022-12-18T03:12:47;3.50;;;1.00;;
9418;SDS011;4748;50.802;7.132;2022-12-18T03:15:22;3.70;;;0.90;;
9418;SDS011;4748;50.802;7.132;2022-12-18T03:17:57;4.30;;;2.17;;
9418;SDS011;4748;50.802;7.132;2022-12-18T03:20:26;1.07;;;1.07;;
9418;SDS011;4748;50.802;7.132;2022-12-18T03:22:57;0.43;;;0.43;;
9418;SDS011;4748;50.802;7.132;2022-12-18T03:25:27;2.50;;;1.23;;
9418;SDS011;4748;50.802;7.132;2022-12-18T03:27:54;1.93;;;1.83;;
9418;SDS011;4748;50.802;7.132;2022-12-18T03:30:23;2.57;;;1.07;;
9418;SDS011;4748;50.802;7.132;2022-12-18T03:33:00;4.87;;;0.80;;
9418;SDS011;4748;50.802;7.132;2022-12-18T03:35:31;1.60;;;1.40;;
9418;SDS011;4748;50.802;7.132;2022-12-18T03:38:01;0.30;;;0.30;;
9418;SDS011;4748;50.802;7.132;2022-12-18T03:40:29;1.00;;;1.00;;
9418;SDS011;4748;50.802;7.132;2022-12-18T03:43:08;2.80;;;1.27;;
9418;SDS011;4748;50.802;7.132;2022-12-18T03:45:48;2.53;;;1.90;;
9418;SDS011;4748;50.802;7.132;2022-12-18T03:51:43;1.47;;;1.10;;
9418;SDS011;4748;50.802;7.132;2022-12-18T03:54:22;3.60;;;1.37;;
9418;SDS011;4748;50.802;7.132;2022-12-18T03:56:52;1.50;;;1.43;;
9418;SDS011;4748;50.802;7.132;2022-12-18T03:59:23;1.83;;;1.00;;
9418;SDS011;4748;50.802;7.132;2022-12-18T04:01:50;3.97;;;1.43;;
9418;SDS011;4748;50.802;7.132;2022-12-18T04:04:19;1.03;;;1.00;;
9418;SDS011;4748;50.802;7.132;2022-12-18T04:06:46;1.83;;;1.13;;
9418;SDS011;4748;50.802;7.132;2022-12-18T04:09:14;3.30;;;0.93;;
9418;SDS011;4748;50.802;7.132;2022-12-18T04:11:40;6.10;;;1.20;;
9418;SDS011;4748;50.802;7.132;2022-12-18T04:14:08;1.63;;;1.63;;
9418;SDS011;4748;50.802;7.132;2022-12-18T04:16:34;1.03;;;0.80;;
9418;SDS011;4748;50.802;7.132;2022-12-18T04:18:59;2.03;;;0.87;;
9418;SDS011;4748;50.802;7.132;2022-12-18T04:21:25;1.13;;;1.13;;
9418;SDS011;4748;50.802;7.132;2022-12-18T04:23:50;2.07;;;1.97;;
9418;SDS011;4748;50.802;7.132;2022-12-18T04:26:15;9.40;;;1.73;;
9418;SDS011;4748;50.802;7.132;2022-12-18T04:28:41;1.03;;;0.77;;
9418;SDS011;4748;50.802;7.132;2022-12-18T04:31:06;0.60;;;0.60;;
9418;SDS011;4748;50.802;7.132;2022-12-18T04:33:32;1.47;;;1.27;;
9418;SDS011;4748;50.802;7.132;2022-12-18T04:35:57;1.80;;;1.67;;
9418;SDS011;4748;50.802;7.132;2022-12-18T04:38:23;1.60;;;1.50;;
9418;SDS011;4748;50.802;7.132;2022-12-18T04:40:48;5.03;;;1.23;;
9418;SDS011;4748;50.802;7.132;2022-12-18T04:43:13;2.33;;;1.37;;
9418;SDS011;4748;50.802;7.132;2022-12-18T04:45:39;9.33;;;1.97;;
9418;SDS011;4748;50.802;7.132;2022-12-18T04:48:04;3.10;;;1.20;;
9418;SDS011;4748;50.802;7.132;2022-12-18T04:50:30;0.90;;;0.80;;
9418;SDS011;4748;50.802;7.132;2022-12-18T04:52:55;0.93;;;0.93;;
9418;SDS011;4748;50.802;7.132;2022-12-18T04:55:27;4.43;;;1.73;;
9418;SDS011;4748;50.802;7.132;2022-12-18T04:57:52;2.17;;;1.57;;
9418;SDS011;4748;50.802;7.132;2022-12-18T05:00:18;0.77;;;0.73;;
9418;SDS011;4748;50.802;7.132;2022-12-18T05:02:44;1.60;;;1.47;;
9418;SDS011;4748;50.802;7.132;2022-12-18T05:05:09;1.10;;;1.00;;
9418;SDS011;4748;50.802;7.132;2022-12-18T05:07:35;2.70;;;1.47;;
9418;SDS011;4748;50.802;7.132;2022-12-18T05:10:00;1.37;;;1.27;;
9418;SDS011;4748;50.802;7.132;2022-12-18T05:12:32;1.00;;;0.50;;
9418;SDS011;4748;50.802;7.132;2022-12-18T05:14:57;1.73;;;1.13;;
9418;SDS011;4748;50.802;7.132;2022-12-18T05:17:23;0.97;;;0.97;;
9418;SDS011;4748;50.802;7.132;2022-12-18T05:19:48;3.60;;;0.57;;
9418;SDS011;4748;50.802;7.132;2022-12-18T05:22:13;0.47;;;0.47;;
9418;SDS011;4748;50.802;7.132;2022-12-18T05:24:39;2.80;;;0.53;;
9418;SDS011;4748;50.802;7.132;2022-12-18T05:27:04;10.50;;;1.10;;
9418;SDS011;4748;50.802;7.132;2022-12-18T05:29:29;7.03;;;2.13;;
9418;SDS011;4748;50.802;7.132;2022-12-18T05:31:55;6.67;;;1.33;;
9418;SDS011;4748;50.802;7.132;2022-12-18T05:34:20;1.40;;;0.93;;
9418;SDS011;4748;50.802;7.132;2022-12-18T05:36:45;6.10;;;1.53;;
9418;SDS011;4748;50.802;7.132;2022-12-18T05:39:11;5.10;;;0.93;;
9418;SDS011;4748;50.802;7.132;2022-12-18T05:41:36;0.57;;;0.57;;
9418;SDS011;4748;50.802;7.132;2022-12-18T05:44:02;1.17;;;1.10;;
9418;SDS011;4748;50.802;7.132;2022-12-18T05:46:27;4.13;;;1.70;;
9418;SDS011;4748;50.802;7.132;2022-12-18T05:48:52;4.77;;;1.90;;
9418;SDS011;4748;50.802;7.132;2022-12-18T05:51:19;2.13;;;1.37;;
9418;SDS011;4748;50.802;7.132;2022-12-18T05:53:46;1.13;;;1.07;;
9418;SDS011;4748;50.802;7.132;2022-12-18T05:56:16;1.30;;;0.83;;
9418;SDS011;4748;50.802;7.132;2022-12-18T05:58:44;1.43;;;0.60;;
9418;SDS011;4748;50.802;7.132;2022-12-18T06:01:11;0.97;;;0.97;;
9418;SDS011;4748;50.802;7.132;2022-12-18T06:03:38;2.00;;;1.20;;
9418;SDS011;4748;50.802;7.132;2022-12-18T06:06:04;1.50;;;1.40;;
9418;SDS011;4748;50.802;7.132;2022-12-18T06:08:37;1.27;;;1.20;;
9418;SDS011;4748;50.802;7.132;2022-12-18T06:11:02;2.80;;;0.73;;
9418;SDS011;4748;50.802;7.132;2022-12-18T06:13:28;1.47;;;0.80;;
9418;SDS011;4748;50.802;7.132;2022-12-18T06:15:53;0.50;;;0.50;;
9418;SDS011;4748;50.802;7.132;2022-12-18T06:18:18;0.93;;;0.93;;
9418;SDS011;4748;50.802;7.132;2022-12-18T06:20:44;2.90;;;2.70;;
9418;SDS011;4748;50.802;7.132;2022-12-18T06:23:09;0.63;;;0.63;;
9418;SDS011;4748;50.802;7.132;2022-12-18T06:25:37;0.97;;;0.83;;
9418;SDS011;4748;50.802;7.132;2022-12-18T06:28:03;3.60;;;2.10;;
9418;SDS011;4748;50.802;7.132;2022-12-18T06:30:28;0.80;;;0.80;;
9418;SDS011;4748;50.802;7.132;2022-12-18T06:32:54;2.00;;;1.30;;
9418;SDS011;4748;50.802;7.132;2022-12-18T06:35:22;1.20;;;1.20;;
9418;SDS011;4748;50.802;7.132;2022-12-18T06:37:48;4.50;;;2.90;;
9418;SDS011;4748;50.802;7.132;2022-12-18T06:40:13;1.90;;;1.40;;
9418;SDS011;4748;50.802;7.132;2022-12-18T06:42:38;9.13;;;1.67;;
9418;SDS011;4748;50.802;7.132;2022-12-18T06:45:04;5.13;;;2.20;;
9418;SDS011;4748;50.802;7.132;2022-12-18T06:47:29;3.00;;;1.70;;
9418;SDS011;4748;50.802;7.132;2022-12-18T06:49:55;1.03;;;1.00;;
9418;SDS011;4748;50.802;7.132;2022-12-18T06:52:20;1.97;;;1.47;;
9418;SDS011;4748;50.802;7.132;2022-12-18T06:54:45;1.87;;;1.17;;
9418;SDS011;4748;50.802;7.132;2022-12-18T06:57:10;1.10;;;1.10;;
9418;SDS011;4748;50.802;7.132;2022-12-18T06:59:36;4.50;;;1.13;;
9418;SDS011;4748;50.802;7.132;2022-12-18T07:02:01;7.37;;;1.83;;
9418;SDS011;4748;50.802;7.132;2022-12-18T07:04:27;1.47;;;1.37;;
9418;SDS011;4748;50.802;7.132;2022-12-18T07:06:55;3.90;;;1.90;;
9418;SDS011;4748;50.802;7.132;2022-12-18T07:09:22;2.53;;;1.00;;
9418;SDS011;4748;50.802;7.132;2022-12-18T07:11:47;13.07;;;3.40;;
9418;SDS011;4748;50.802;7.132;2022-12-18T07:14:12;2.67;;;1.23;;
9418;SDS011;4748;50.802;7.132;2022-12-18T07:16:38;6.73;;;1.00;;
9418;SDS011;4748;50.802;7.132;2022-12-18T07:19:03;1.80;;;0.73;;
9418;SDS011;4748;50.802;7.132;2022-12-18T07:21:29;1.77;;;1.63;;
9418;SDS011;4748;50.802;7.132;2022-12-18T07:23:54;2.53;;;1.50;;
9418;SDS011;4748;50.802;7.132;2022-12-18T07:26:20;2.90;;;2.33;;
9418;SDS011;4748;50.802;7.132;2022-12-18T07:28:46;2.07;;;2.03;;
9418;SDS011;4748;50.802;7.132;2022-12-18T07:31:14;1.23;;;1.07;;
9418;SDS011;4748;50.802;7.132;2022-12-18T07:33:41;4.30;;;1.87;;
9418;SDS011;4748;50.802;7.132;2022-12-18T07:36:07;3.60;;;1.53;;
9418;SDS011;4748;50.802;7.132;2022-12-18T07:38:35;4.10;;;2.20;;
9418;SDS011;4748;50.802;7.132;2022-12-18T07:41:01;3.00;;;1.40;;
9418;SDS011;4748;50.802;7.132;2022-12-18T07:43:27;1.37;;;1.03;;
9418;SDS011;4748;50.802;7.132;2022-12-18T07:45:53;1.23;;;1.23;;
9418;SDS011;4748;50.802;7.132;2022-12-18T07:48:18;1.13;;;1.00;;
9418;SDS011;4748;50.802;7.132;2022-12-18T07:50:44;0.70;;;0.70;;
9418;SDS011;4748;50.802;7.132;2022-12-18T07:53:09;3.40;;;1.47;;
9418;SDS011;4748;50.802;7.132;2022-12-18T07:55:35;1.60;;;1.33;;
9418;SDS011;4748;50.802;7.132;2022-12-18T07:58:01;1.83;;;1.73;;
9418;SDS011;4748;50.802;7.132;2022-12-18T08:00:28;1.70;;;1.27;;
9418;SDS011;4748;50.802;7.132;2022-12-18T08:02:53;1.87;;;1.37;;
9418;SDS011;4748;50.802;7.132;2022-12-18T08:05:19;4.80;;;2.33;;
9418;SDS011;4748;50.802;7.132;2022-12-18T08:07:45;1.50;;;1.40;;
9418;SDS011;4748;50.802;7.132;2022-12-18T08:10:11;3.67;;;1.77;;
9418;SDS011;4748;50.802;7.132;2022-12-18T08:12:36;1.63;;;1.43;;
9418;SDS011;4748;50.802;7.132;2022-12-18T08:15:01;7.70;;;2.20;;
9418;SDS011;4748;50.802;7.132;2022-12-18T08:17:27;2.13;;;2.03;;
9418;SDS011;4748;50.802;7.132;2022-12-18T08:19:53;3.60;;;2.10;;
9418;SDS011;4748;50.802;7.132;2022-12-18T08:22:18;0.97;;;0.83;;
9418;SDS011;4748;50.802;7.132;2022-12-18T08:24:44;2.50;;;1.43;;
9418;SDS011;4748;50.802;7.132;2022-12-18T08:27:09;1.87;;;1.77;;
9418;SDS011;4748;50.802;7.132;2022-12-18T08:29:35;1.40;;;0.70;;
9418;SDS011;4748;50.802;7.132;2022-12-18T08:32:00;4.70;;;1.50;;
9418;SDS011;4748;50.802;7.132;2022-12-18T08:34:25;1.53;;;1.23;;
9418;SDS011;4748;50.802;7.132;2022-12-18T08:36:51;2.67;;;1.73;;
9418;SDS011;4748;50.802;7.132;2022-12-18T08:39:16;0.97;;;0.70;;
9418;SDS011;4748;50.802;7.132;2022-12-18T08:41:42;2.10;;;1.87;;
9418;SDS011;4748;50.802;7.132;2022-12-18T08:44:07;3.73;;;2.13;;
9418;SDS011;4748;50.802;7.132;2022-12-18T08:46:51;4.40;;;2.47;;
9418;SDS011;4748;50.802;7.132;2022-12-18T08:49:17;3.33;;;1.90;;
9418;SDS011;4748;50.802;7.132;2022-12-18T08:51:42;2.67;;;1.90;;
9418;SDS011;4748;50.802;7.132;2022-12-18T08:54:09;0.33;;;0.33;;
9418;SDS011;4748;50.802;7.132;2022-12-18T08:56:37;5.90;;;2.37;;
9418;SDS011;4748;50.802;7.132;2022-12-18T08:59:02;2.17;;;1.83;;
9418;SDS011;4748;50.802;7.132;2022-12-18T09:01:29;1.30;;;1.00;;
9418;SDS011;4748;50.802;7.132;2022-12-18T09:03:55;3.07;;;1.63;;
9418;SDS011;4748;50.802;7.132;2022-12-18T09:06:21;4.60;;;2.87;;
9418;SDS011;4748;50.802;7.132;2022-12-18T09:08:47;2.23;;;1.93;;
9418;SDS011;4748;50.802;7.132;2022-12-18T09:11:23;5.70;;;2.43;;
9418;SDS011;4748;50.802;7.132;2022-12-18T09:13:50;4.73;;;1.87;;
9418;SDS011;4748;50.802;7.132;2022-12-18T09:16:16;3.90;;;2.47;;
9418;SDS011;4748;50.802;7.132;2022-12-18T09:18:42;3.97;;;2.00;;
9418;SDS011;4748;50.802;7.132;2022-12-18T09:21:12;2.20;;;2.10;;
9418;SDS011;4748;50.802;7.132;2022-12-18T09:23:39;3.27;;;2.40;;
9418;SDS011;4748;50.802;7.132;2022-12-18T09:26:04;3.77;;;1.90;;
9418;SDS011;4748;50.802;7.132;2022-12-18T09:28:30;3.70;;;1.87;;
9418;SDS011;4748;50.802;7.132;2022-12-18T09:30:55;2.70;;;1.53;;
9418;SDS011;4748;50.802;7.132;2022-12-18T09:33:21;2.90;;;1.20;;
9418;SDS011;4748;50.802;7.132;2022-12-18T09:35:46;1.30;;;0.80;;
9418;SDS011;4748;50.802;7.132;2022-12-18T09:38:21;4.07;;;2.37;;
9418;SDS011;4748;50.802;7.132;2022-12-18T09:40:49;3.93;;;2.13;;
9418;SDS011;4748;50.802;7.132;2022-12-18T09:46:26;2.37;;;1.90;;
9418;SDS011;4748;50.802;7.132;2022-12-18T09:48:59;5.03;;;2.83;;
9418;SDS011;4748;50.802;7.132;2022-12-18T09:51:35;1.27;;;1.07;;
9418;SDS011;4748;50.802;7.132;2022-12-18T09:54:05;8.43;;;2.47;;
9418;SDS011;4748;50.802;7.132;2022-12-18T09:56:37;3.17;;;2.10;;
9418;SDS011;4748;50.802;7.132;2022-12-18T09:59:09;3.60;;;1.47;;
9418;SDS011;4748;50.802;7.132;2022-12-18T10:01:57;7.47;;;2.17;;
9418;SDS011;4748;50.802;7.132;2022-12-18T10:04:23;2.10;;;1.63;;
9418;SDS011;4748;50.802;7.132;2022-12-18T10:09:28;6.07;;;3.30;;
9418;SDS011;4748;50.802;7.132;2022-12-18T10:14:56;0.77;;;0.77;;
9418;SDS011;4748;50.802;7.132;2022-12-18T10:17:39;2.57;;;1.37;;
9418;SDS011;4748;50.802;7.132;2022-12-18T10:20:24;4.30;;;1.60;;
9418;SDS011;4748;50.802;7.132;2022-12-18T10:28:25;3.37;;;1.30;;
9418;SDS011;4748;50.802;7.132;2022-12-18T10:30:51;2.47;;;1.83;;
9418;SDS011;4748;50.802;7.132;2022-12-18T10:33:18;4.00;;;2.63;;
9418;SDS011;4748;50.802;7.132;2022-12-18T10:35:45;2.77;;;2.47;;
9418;SDS011;4748;50.802;7.132;2022-12-18T10:51:01;2.30;;;1.53;;
9418;SDS011;4748;50.802;7.132;2022-12-18T10:53:28;6.33;;;2.40;;
9418;SDS011;4748;50.802;7.132;2022-12-18T10:55:57;3.43;;;2.97;;
9418;SDS011;4748;50.802;7.132;2022-12-18T10:58:28;4.60;;;2.00;;
9418;SDS011;4748;50.802;7.132;2022-12-18T11:03:43;6.33;;;2.17;;
9418;SDS011;4748;50.802;7.132;2022-12-18T11:06:12;2.13;;;1.77;;
9418;SDS011;4748;50.802;7.132;2022-12-18T11:08:39;1.43;;;1.20;;
9418;SDS011;4748;50.802;7.132;2022-12-18T11:11:07;3.17;;;2.00;;
9418;SDS011;4748;50.802;7.132;2022-12-18T11:14:20;2.27;;;1.77;;
9418;SDS011;4748;50.802;7.132;2022-12-18T11:16:43;6.33;;;1.63;;
9418;SDS011;4748;50.802;7.132;2022-12-18T11:21:49;7.27;;;3.00;;
9418;SDS011;4748;50.802;7.132;2022-12-18T11:24:18;3.87;;;2.30;;
9418;SDS011;4748;50.802;7.132;2022-12-18T11:26:47;3.10;;;1.30;;
9418;SDS011;4748;50.802;7.132;2022-12-18T11:29:16;1.97;;;1.60;;
9418;SDS011;4748;50.802;7.132;2022-12-18T11:31:43;4.53;;;2.43;;
9418;SDS011;4748;50.802;7.132;2022-12-18T11:34:10;2.27;;;1.73;;
9418;SDS011;4748;50.802;7.132;2022-12-18T11:36:46;4.30;;;2.17;;
9418;SDS011;4748;50.802;7.132;2022-12-18T11:42:09;4.67;;;2.90;;
9418;SDS011;4748;50.802;7.132;2022-12-18T11:44:42;3.80;;;2.43;;
9418;SDS011;4748;50.802;7.132;2022-12-18T11:47:21;2.73;;;2.33;;
9418;SDS011;4748;50.802;7.132;2022-12-18T11:49:55;4.43;;;2.87;;
9418;SDS011;4748;50.802;7.132;2022-12-18T11:52:43;2.70;;;1.27;;
9418;SDS011;4748;50.802;7.132;2022-12-18T11:55:16;2.37;;;1.50;;
9418;SDS011;4748;50.802;7.132;2022-12-18T12:07:13;4.90;;;2.30;;
9418;SDS011;4748;50.802;7.132;2022-12-18T12:12:37;8.23;;;2.33;;
9418;SDS011;4748;50.802;7.132;2022-12-18T12:15:22;3.40;;;1.67;;
9418;SDS011;4748;50.802;7.132;2022-12-18T12:18:08;5.67;;;2.67;;
9418;SDS011;4748;50.802;7.132;2022-12-18T12:20:52;7.73;;;2.53;;
9418;SDS011;4748;50.802;7.132;2022-12-18T12:23:49;5.97;;;2.23;;
9418;SDS011;4748;50.802;7.132;2022-12-18T12:32:00;4.60;;;3.00;;
9418;SDS011;4748;50.802;7.132;2022-12-18T12:37:35;2.57;;;2.33;;
9418;SDS011;4748;50.802;7.132;2022-12-18T12:40:06;4.67;;;2.10;;
9418;SDS011;4748;50.802;7.132;2022-12-18T12:42:38;2.60;;;2.40;;
9418;SDS011;4748;50.802;7.132;2022-12-18T12:45:51;10.17;;;3.43;;
9418;SDS011;4748;50.802;7.132;2022-12-18T12:48:32;7.10;;;3.57;;
9418;SDS011;4748;50.802;7.132;2022-12-18T12:51:12;2.60;;;2.40;;
9418;SDS011;4748;50.802;7.132;2022-12-18T12:53:42;11.87;;;4.60;;
9418;SDS011;4748;50.802;7.132;2022-12-18T12:56:08;6.10;;;2.67;;
9418;SDS011;4748;50.802;7.132;2022-12-18T12:58:50;8.80;;;2.97;;
9418;SDS011;4748;50.802;7.132;2022-12-18T13:01:37;13.83;;;3.43;;
9418;SDS011;4748;50.802;7.132;2022-12-18T13:15:43;6.63;;;2.43;;
9418;SDS011;4748;50.802;7.132;2022-12-18T13:20:43;5.27;;;2.60;;
9418;SDS011;4748;50.802;7.132;2022-12-18T13:25:56;6.40;;;3.03;;
9418;SDS011;4748;50.802;7.132;2022-12-18T13:36:41;2.03;;;1.90;;
9418;SDS011;4748;50.802;7.132;2022-12-18T13:41:46;6.77;;;3.10;;
9418;SDS011;4748;50.802;7.132;2022-12-18T13:47:05;6.07;;;2.80;;
9418;SDS011;4748;50.802;7.132;2022-12-18T13:49:57;7.63;;;4.10;;
9418;SDS011;4748;50.802;7.132;2022-12-18T13:52:33;4.20;;;2.90;;
9418;SDS011;4748;50.802;7.132;2022-12-18T13:55:02;2.23;;;2.00;;
9418;SDS011;4748;50.802;7.132;2022-12-18T13:57:35;7.17;;;3.70;;
9418;SDS011;4748;50.802;7.132;2022-12-18T14:02:51;5.77;;;3.07;;
9418;SDS011;4748;50.802;7.132;2022-12-18T14:05:24;6.30;;;3.03;;
9418;SDS011;4748;50.802;7.132;2022-12-18T14:07:54;4.07;;;2.53;;
9418;SDS011;4748;50.802;7.132;2022-12-18T14:10:25;5.97;;;2.33;;
9418;SDS011;4748;50.802;7.132;2022-12-18T14:12:51;13.93;;;3.50;;
9418;SDS011;4748;50.802;7.132;2022-12-18T14:15:24;8.53;;;2.47;;
9418;SDS011;4748;50.802;7.132;2022-12-18T14:18:02;7.20;;;2.70;;
9418;SDS011;4748;50.802;7.132;2022-12-18T14:20:39;5.10;;;2.73;;
9418;SDS011;4748;50.802;7.132;2022-12-18T14:23:25;8.70;;;3.73;;
9418;SDS011;4748;50.802;7.132;2022-12-18T14:25:52;6.67;;;3.23;;
9418;SDS011;4748;50.802;7.132;2022-12-18T14:28:17;7.93;;;3.23;;
9418;SDS011;4748;50.802;7.132;2022-12-18T14:30:44;9.67;;;3.07;;
9418;SDS011;4748;50.802;7.132;2022-12-18T14:33:12;7.20;;;3.07;;
9418;SDS011;4748;50.802;7.132;2022-12-18T14:35:51;6.03;;;4.00;;
9418;SDS011;4748;50.802;7.132;2022-12-18T14:40:54;7.20;;;3.57;;
9418;SDS011;4748;50.802;7.132;2022-12-18T14:43:21;3.43;;;3.13;;
9418;SDS011;4748;50.802;7.132;2022-12-18T14:45:46;3.77;;;2.40;;
9418;SDS011;4748;50.802;7.132;2022-12-18T14:48:22;6.10;;;3.23;;
9418;SDS011;4748;50.802;7.132;2022-12-18T14:51:02;11.70;;;3.10;;
9418;SDS011;4748;50.802;7.132;2022-12-18T14:53:38;6.07;;;3.40;;
9418;SDS011;4748;50.802;7.132;2022-12-18T14:56:14;4.70;;;2.57;;
9418;SDS011;4748;50.802;7.132;2022-12-18T14:58:44;7.90;;;3.20;;
9418;SDS011;4748;50.802;7.132;2022-12-18T15:01:45;7.33;;;2.83;;
9418;SDS011;4748;50.802;7.132;2022-12-18T15:04:46;4.00;;;3.33;;
9418;SDS011;4748;50.802;7.132;2022-12-18T15:09:37;10.03;;;3.00;;
9418;SDS011;4748;50.802;7.132;2022-12-18T15:12:04;8.30;;;3.20;;
9418;SDS011;4748;50.802;7.132;2022-12-18T15:17:21;10.90;;;4.17;;
9418;SDS011;4748;50.802;7.132;2022-12-18T15:19:48;10.73;;;4.10;;
9418;SDS011;4748;50.802;7.132;2022-12-18T15:24:50;3.20;;;2.90;;
9418;SDS011;4748;50.802;7.132;2022-12-18T15:27:23;7.03;;;2.87;;
9418;SDS011;4748;50.802;7.132;2022-12-18T15:32:36;5.13;;;3.23;;
9418;SDS011;4748;50.802;7.132;2022-12-18T15:37:38;8.87;;;3.83;;
9418;SDS011;4748;50.802;7.132;2022-12-18T15:40:04;7.67;;;3.13;;
9418;SDS011;4748;50.802;7.132;2022-12-18T15:42:30;4.40;;;2.40;;
9418;SDS011;4748;50.802;7.132;2022-12-18T15:45:14;5.40;;;2.57;;
9418;SDS011;4748;50.802;7.132;2022-12-18T15:47:40;6.93;;;2.80;;
9418;SDS011;4748;50.802;7.132;2022-12-18T15:50:09;3.87;;;2.60;;
9418;SDS011;4748;50.802;7.132;2022-12-18T15:52:45;2.50;;;2.30;;
9418;SDS011;4748;50.802;7.132;2022-12-18T15:55:16;2.40;;;2.20;;
9418;SDS011;4748;50.802;7.132;2022-12-18T15:58:05;6.40;;;2.83;;
9418;SDS011;4748;50.802;7.132;2022-12-18T16:00:32;9.20;;;3.80;;
9418;SDS011;4748;50.802;7.132;2022-12-18T16:03:00;7.43;;;3.60;;
9418;SDS011;4748;50.802;7.132;2022-12-18T16:05:25;4.23;;;2.77;;
9418;SDS011;4748;50.802;7.132;2022-12-18T16:07:52;8.63;;;2.20;;
9418;SDS011;4748;50.802;7.132;2022-12-18T16:10:17;9.43;;;5.07;;
9418;SDS011;4748;50.802;7.132;2022-12-18T16:12:43;4.97;;;2.87;;
9418;SDS011;4748;50.802;7.132;2022-12-18T16:15:09;8.40;;;2.90;;
9418;SDS011;4748;50.802;7.132;2022-12-18T16:17:38;6.47;;;4.47;;
9418;SDS011;4748;50.802;7.132;2022-12-18T16:20:04;6.27;;;3.63;;
9418;SDS011;4748;50.802;7.132;2022-12-18T16:22:30;8.33;;;3.50;;
9418;SDS011;4748;50.802;7.132;2022-12-18T16:24:56;5.87;;;2.70;;
9418;SDS011;4748;50.802;7.132;2022-12-18T16:27:22;3.37;;;2.93;;
9418;SDS011;4748;50.802;7.132;2022-12-18T16:29:48;3.43;;;1.97;;
9418;SDS011;4748;50.802;7.132;2022-12-18T16:32:15;5.20;;;3.50;;
9418;SDS011;4748;50.802;7.132;2022-12-18T16:34:45;13.40;;;5.53;;
9418;SDS011;4748;50.802;7.132;2022-12-18T16:37:11;7.00;;;2.87;;
9418;SDS011;4748;50.802;7.132;2022-12-18T16:39:38;12.60;;;4.17;;
9418;SDS011;4748;50.802;7.132;2022-12-18T16:42:06;9.40;;;3.50;;
9418;SDS011;4748;50.802;7.132;2022-12-18T16:44:41;7.03;;;3.30;;
9418;SDS011;4748;50.802;7.132;2022-12-18T16:47:07;9.07;;;2.80;;
9418;SDS011;4748;50.802;7.132;2022-12-18T16:49:33;5.33;;;3.13;;
9418;SDS011;4748;50.802;7.132;2022-12-18T16:52:01;8.97;;;4.37;;
9418;SDS011;4748;50.802;7.132;2022-12-18T16:54:27;6.00;;;4.40;;
9418;SDS011;4748;50.802;7.132;2022-12-18T16:56:57;11.43;;;4.30;;
9418;SDS011;4748;50.802;7.132;2022-12-18T16:59:24;7.10;;;2.83;;
9418;SDS011;4748;50.802;7.132;2022-12-18T17:01:50;10.07;;;3.03;;
9418;SDS011;4748;50.802;7.132;2022-12-18T17:04:16;3.87;;;3.33;;
9418;SDS011;4748;50.802;7.132;2022-12-18T17:06:42;5.07;;;3.33;;
9418;SDS011;4748;50.802;7.132;2022-12-18T17:09:13;4.97;;;3.40;;
9418;SDS011;4748;50.802;7.132;2022-12-18T17:11:42;7.93;;;4.50;;
9418;SDS011;4748;50.802;7.132;2022-12-18T17:14:08;9.07;;;5.03;;
9418;SDS011;4748;50.802;7.132;2022-12-18T17:16:39;10.63;;;5.00;;
9418;SDS011;4748;50.802;7.132;2022-12-18T17:19:04;11.77;;;4.90;;
9418;SDS011;4748;50.802;7.132;2022-12-18T17:21:30;4.73;;;3.83;;
9418;SDS011;4748;50.802;7.132;2022-12-18T17:23:55;7.77;;;3.77;;
9418;SDS011;4748;50.802;7.132;2022-12-18T17:26:24;6.90;;;3.37;;
9418;SDS011;4748;50.802;7.132;2022-12-18T17:28:49;4.77;;;3.33;;
9418;SDS011;4748;50.802;7.132;2022-12-18T17:31:21;3.17;;;2.93;;
9418;SDS011;4748;50.802;7.132;2022-12-18T17:33:48;9.43;;;5.27;;
9418;SDS011;4748;50.802;7.132;2022-12-18T17:36:14;9.93;;;4.63;;
9418;SDS011;4748;50.802;7.132;2022-12-18T17:38:48;6.23;;;3.23;;
9418;SDS011;4748;50.802;7.132;2022-12-18T17:41:15;8.73;;;4.07;;